sensor_id;sensor_type;location;lat;lon;timestamp;temperature;humidity
49503;DHT22;35409;48.776;9.204;2022-12-29T00:01:36;9.00;99.90
49503;DHT22;35409;48.776;9.204;2022-12-29T00:04:02;9.10;99.90
49503;DHT22;35409;48.776;9.204;2022-12-29T00:06:28;9.10;99.90
49503;DHT22;35409;48.776;9.204;2022-12-29T00:08:54;9.20;99.90
49503;DHT22;35409;48.776;9.204;2022-12-29T00:11:24;9.20;99.90
49503;DHT22;35409;48.776;9.204;2022-12-29T00:13:50;9.20;99.90
49503;DHT22;35409;48.776;9.204;2022-12-29T00:16:36;9.30;99.90
49503;DHT22;35409;48.776;9.204;2022-12-29T00:19:03;9.30;99.90
49503;DHT22;35409;48.776;9.204;2022-12-29T00:21:29;9.30;99.90
49503;DHT22;35409;48.776;9.204;2022-12-29T00:24:19;9.30;99.90
49503;DHT22;35409;48.776;9.204;2022-12-29T00:27:12;9.30;99.90
49503;DHT22;35409;48.776;9.204;2022-12-29T00:29:57;9.40;99.90
49503;DHT22;35409;48.776;9.204;2022-12-29T00:32:41;9.50;99.90
49503;DHT22;35409;48.776;9.204;2022-12-29T00:35:31;9.50;99.90
49503;DHT22;35409;48.776;9.204;2022-12-29T00:38:03;9.50;99.90
49503;DHT22;35409;48.776;9.204;2022-12-29T00:40:48;9.50;99.90
49503;DHT22;35409;48.776;9.204;2022-12-29T00:43:33;9.50;99.90
49503;DHT22;35409;48.776;9.204;2022-12-29T00:46:17;9.60;99.90
49503;DHT22;35409;48.776;9.204;2022-12-29T00:48:42;9.60;99.90
49503;DHT22;35409;48.776;9.204;2022-12-29T00:51:26;9.70;99.90
49503;DHT22;35409;48.776;9.204;2022-12-29T00:53:52;9.80;99.90
49503;DHT22;35409;48.776;9.204;2022-12-29T00:56:18;9.90;99.90
49503;DHT22;35409;48.776;9.204;2022-12-29T00:58:43;10.10;99.90
49503;DHT22;35409;48.776;9.204;2022-12-29T01:01:09;10.10;99.90
49503;DHT22;35409;48.776;9.204;2022-12-29T01:03:36;10.20;99.90
49503;DHT22;35409;48.776;9.204;2022-12-29T01:06:04;10.20;99.90
49503;DHT22;35409;48.776;9.204;2022-12-29T01:08:29;10.30;99.90
49503;DHT22;35409;48.776;9.204;2022-12-29T01:11:09;10.20;99.90
49503;DHT22;35409;48.776;9.204;2022-12-29T01:13:36;10.30;99.90
49503;DHT22;35409;48.776;9.204;2022-12-29T01:16:04;10.30;99.90
49503;DHT22;35409;48.776;9.204;2022-12-29T01:18:30;10.40;99.90
49503;DHT22;35409;48.776;9.204;2022-12-29T01:21:01;10.40;99.90
49503;DHT22;35409;48.776;9.204;2022-12-29T01:23:28;10.40;99.90
49503;DHT22;35409;48.776;9.204;2022-12-29T01:25:54;10.40;99.90
49503;DHT22;35409;48.776;9.204;2022-12-29T01:28:20;10.40;99.90
49503;DHT22;35409;48.776;9.204;2022-12-29T01:30:45;10.50;99.90
49503;DHT22;35409;48.776;9.204;2022-12-29T01:33:11;10.40;99.90
49503;DHT22;35409;48.776;9.204;2022-12-29T01:35:36;10.40;99.90
49503;DHT22;35409;48.776;9.204;2022-12-29T01:38:02;10.40;99.90
49503;DHT22;35409;48.776;9.204;2022-12-29T01:40:28;10.30;99.90
49503;DHT22;35409;48.776;9.204;2022-12-29T01:42:53;10.30;99.90
49503;DHT22;35409;48.776;9.204;2022-12-29T01:45:19;10.30;99.90
49503;DHT22;35409;48.776;9.204;2022-12-29T01:47:55;10.30;99.90
49503;DHT22;35409;48.776;9.204;2022-12-29T01:50:26;10.30;99.90
49503;DHT22;35409;48.776;9.204;2022-12-29T01:53:02;10.30;99.90
49503;DHT22;35409;48.776;9.204;2022-12-29T01:55:32;10.20;99.90
49503;DHT22;35409;48.776;9.204;2022-12-29T01:57:59;10.20;99.90
49503;DHT22;35409;48.776;9.204;2022-12-29T02:00:26;10.20;99.90
49503;DHT22;35409;48.776;9.204;2022-12-29T02:02:52;10.10;99.90
49503;DHT22;35409;48.776;9.204;2022-12-29T02:05:41;10.10;99.90
49503;DHT22;35409;48.776;9.204;2022-12-29T02:08:09;10.20;99.90
49503;DHT22;35409;48.776;9.204;2022-12-29T02:10:35;10.10;99.90
49503;DHT22;35409;48.776;9.204;2022-12-29T02:13:01;10.10;99.90
49503;DHT22;35409;48.776;9.204;2022-12-29T02:40:17;10.00;99.90
49503;DHT22;35409;48.776;9.204;2022-12-29T02:42:48;10.00;99.90
49503;DHT22;35409;48.776;9.204;2022-12-29T02:45:26;10.10;99.90
49503;DHT22;35409;48.776;9.204;2022-12-29T02:50:35;10.20;99.90
49503;DHT22;35409;48.776;9.204;2022-12-29T02:53:06;10.20;99.90
49503;DHT22;35409;48.776;9.204;2022-12-29T02:55:33;10.30;99.90
49503;DHT22;35409;48.776;9.204;2022-12-29T03:03:49;10.40;99.90
49503;DHT22;35409;48.776;9.204;2022-12-29T03:06:33;10.50;99.90
49503;DHT22;35409;48.776;9.204;2022-12-29T03:09:16;10.50;99.90
49503;DHT22;35409;48.776;9.204;2022-12-29T03:11:58;10.50;99.90
49503;DHT22;35409;48.776;9.204;2022-12-29T03:14:41;10.50;99.90
49503;DHT22;35409;48.776;9.204;2022-12-29T03:17:47;10.60;99.90
49503;DHT22;35409;48.776;9.204;2022-12-29T03:20:18;10.60;99.90
49503;DHT22;35409;48.776;9.204;2022-12-29T03:22:48;10.50;99.90
49503;DHT22;35409;48.776;9.204;2022-12-29T03:25:25;10.60;99.90
49503;DHT22;35409;48.776;9.204;2022-12-29T03:27:57;10.60;99.90
49503;DHT22;35409;48.776;9.204;2022-12-29T03:30:24;10.70;99.90
49503;DHT22;35409;48.776;9.204;2022-12-29T03:32:55;10.80;99.90
49503;DHT22;35409;48.776;9.204;2022-12-29T03:35:25;10.80;99.90
49503;DHT22;35409;48.776;9.204;2022-12-29T03:38:24;10.80;99.90
49503;DHT22;35409;48.776;9.204;2022-12-29T03:40:54;10.80;99.90
49503;DHT22;35409;48.776;9.204;2022-12-29T03:43:21;10.80;99.90
49503;DHT22;35409;48.776;9.204;2022-12-29T03:45:47;10.80;99.90
49503;DHT22;35409;48.776;9.204;2022-12-29T03:48:12;10.90;99.90
49503;DHT22;35409;48.776;9.204;2022-12-29T03:50:38;10.90;99.90
49503;DHT22;35409;48.776;9.204;2022-12-29T03:53:03;11.00;99.90
49503;DHT22;35409;48.776;9.204;2022-12-29T03:55:29;11.10;99.90
49503;DHT22;35409;48.776;9.204;2022-12-29T03:57:55;11.10;99.90
49503;DHT22;35409;48.776;9.204;2022-12-29T04:00:20;11.20;99.90
49503;DHT22;35409;48.776;9.204;2022-12-29T04:02:46;11.30;99.90
49503;DHT22;35409;48.776;9.204;2022-12-29T04:05:11;11.30;99.90
49503;DHT22;35409;48.776;9.204;2022-12-29T04:07:37;11.30;99.90
49503;DHT22;35409;48.776;9.204;2022-12-29T04:10:03;11.20;99.90
49503;DHT22;35409;48.776;9.204;2022-12-29T04:12:29;11.10;99.90
49503;DHT22;35409;48.776;9.204;2022-12-29T04:14:54;11.10;99.90
49503;DHT22;35409;48.776;9.204;2022-12-29T04:17:20;11.00;99.90
49503;DHT22;35409;48.776;9.204;2022-12-29T04:19:45;11.00;99.90
49503;DHT22;35409;48.776;9.204;2022-12-29T04:22:11;11.00;99.90
49503;DHT22;35409;48.776;9.204;2022-12-29T04:24:37;11.00;99.90
49503;DHT22;35409;48.776;9.204;2022-12-29T04:27:03;10.90;99.90
49503;DHT22;35409;48.776;9.204;2022-12-29T04:29:28;10.80;99.90
49503;DHT22;35409;48.776;9.204;2022-12-29T04:31:54;10.80;99.90
49503;DHT22;35409;48.776;9.204;2022-12-29T04:34:19;10.80;99.90
49503;DHT22;35409;48.776;9.204;2022-12-29T04:36:45;10.80;99.90
49503;DHT22;35409;48.776;9.204;2022-12-29T04:39:11;10.70;99.90
49503;DHT22;35409;48.776;9.204;2022-12-29T04:41:36;10.80;99.90
49503;DHT22;35409;48.776;9.204;2022-12-29T04:44:02;10.90;99.90
49503;DHT22;35409;48.776;9.204;2022-12-29T04:46:27;10.80;99.90
49503;DHT22;35409;48.776;9.204;2022-12-29T04:48:53;10.90;99.90
49503;DHT22;35409;48.776;9.204;2022-12-29T04:51:18;10.90;99.90
49503;DHT22;35409;48.776;9.204;2022-12-29T04:53:44;10.80;99.90
49503;DHT22;35409;48.776;9.204;2022-12-29T04:56:10;10.90;99.90
49503;DHT22;35409;48.776;9.204;2022-12-29T04:58:36;10.80;99.90
49503;DHT22;35409;48.776;9.204;2022-12-29T05:01:02;10.80;99.90
49503;DHT22;35409;48.776;9.204;2022-12-29T05:03:28;10.80;99.90
49503;DHT22;35409;48.776;9.204;2022-12-29T05:05:55;10.80;99.90
49503;DHT22;35409;48.776;9.204;2022-12-29T05:08:21;10.90;99.90
49503;DHT22;35409;48.776;9.204;2022-12-29T05:10:49;10.90;99.90
49503;DHT22;35409;48.776;9.204;2022-12-29T05:13:15;10.90;99.90
49503;DHT22;35409;48.776;9.204;2022-12-29T05:15:40;11.00;99.90
49503;DHT22;35409;48.776;9.204;2022-12-29T05:18:06;11.00;99.90
49503;DHT22;35409;48.776;9.204;2022-12-29T05:20:31;10.90;99.90
49503;DHT22;35409;48.776;9.204;2022-12-29T05:22:57;10.90;99.90
49503;DHT22;35409;48.776;9.204;2022-12-29T05:25:22;11.00;99.90
49503;DHT22;35409;48.776;9.204;2022-12-29T05:27:48;11.00;99.90
49503;DHT22;35409;48.776;9.204;2022-12-29T05:30:14;11.00;99.90
49503;DHT22;35409;48.776;9.204;2022-12-29T05:32:39;11.00;99.90
49503;DHT22;35409;48.776;9.204;2022-12-29T05:35:05;11.00;99.90
49503;DHT22;35409;48.776;9.204;2022-12-29T05:37:31;11.10;99.90
49503;DHT22;35409;48.776;9.204;2022-12-29T05:39:56;11.10;99.90
49503;DHT22;35409;48.776;9.204;2022-12-29T05:42:22;11.10;99.90
49503;DHT22;35409;48.776;9.204;2022-12-29T05:44:48;11.20;99.90
49503;DHT22;35409;48.776;9.204;2022-12-29T05:47:17;11.20;99.90
49503;DHT22;35409;48.776;9.204;2022-12-29T05:49:42;11.10;99.90
49503;DHT22;35409;48.776;9.204;2022-12-29T05:52:08;11.00;99.90
49503;DHT22;35409;48.776;9.204;2022-12-29T05:54:33;11.00;99.90
49503;DHT22;35409;48.776;9.204;2022-12-29T05:56:59;11.10;99.90
49503;DHT22;35409;48.776;9.204;2022-12-29T05:59:25;11.00;99.90
49503;DHT22;35409;48.776;9.204;2022-12-29T06:01:50;11.00;99.90
49503;DHT22;35409;48.776;9.204;2022-12-29T06:04:16;11.00;99.90
49503;DHT22;35409;48.776;9.204;2022-12-29T06:06:42;11.10;99.90
49503;DHT22;35409;48.776;9.204;2022-12-29T06:09:10;11.20;99.90
49503;DHT22;35409;48.776;9.204;2022-12-29T06:11:36;11.10;99.90
49503;DHT22;35409;48.776;9.204;2022-12-29T06:14:02;11.10;99.90
49503;DHT22;35409;48.776;9.204;2022-12-29T06:16:28;11.10;99.90
49503;DHT22;35409;48.776;9.204;2022-12-29T06:18:54;11.00;99.90
49503;DHT22;35409;48.776;9.204;2022-12-29T06:21:19;11.00;99.90
49503;DHT22;35409;48.776;9.204;2022-12-29T06:23:45;11.00;99.90
49503;DHT22;35409;48.776;9.204;2022-12-29T06:26:10;11.10;99.90
49503;DHT22;35409;48.776;9.204;2022-12-29T06:28:36;11.00;99.90
49503;DHT22;35409;48.776;9.204;2022-12-29T06:31:01;11.00;99.90
49503;DHT22;35409;48.776;9.204;2022-12-29T06:33:28;11.00;99.90
49503;DHT22;35409;48.776;9.204;2022-12-29T06:35:54;10.90;99.90
49503;DHT22;35409;48.776;9.204;2022-12-29T06:38:19;10.80;99.90
49503;DHT22;35409;48.776;9.204;2022-12-29T06:40:45;10.70;99.90
49503;DHT22;35409;48.776;9.204;2022-12-29T06:43:11;10.60;99.90
49503;DHT22;35409;48.776;9.204;2022-12-29T06:45:38;10.50;99.90
49503;DHT22;35409;48.776;9.204;2022-12-29T06:48:05;10.50;99.90
49503;DHT22;35409;48.776;9.204;2022-12-29T06:50:31;10.40;99.90
49503;DHT22;35409;48.776;9.204;2022-12-29T06:52:56;10.40;99.90
49503;DHT22;35409;48.776;9.204;2022-12-29T06:55:22;10.30;99.90
49503;DHT22;35409;48.776;9.204;2022-12-29T06:57:47;10.30;99.90
49503;DHT22;35409;48.776;9.204;2022-12-29T07:00:13;10.30;99.90
49503;DHT22;35409;48.776;9.204;2022-12-29T07:02:39;10.20;99.90
49503;DHT22;35409;48.776;9.204;2022-12-29T07:05:05;10.20;99.90
49503;DHT22;35409;48.776;9.204;2022-12-29T07:07:32;10.20;99.90
49503;DHT22;35409;48.776;9.204;2022-12-29T07:09:58;10.20;99.90
49503;DHT22;35409;48.776;9.204;2022-12-29T07:12:23;10.10;99.90
49503;DHT22;35409;48.776;9.204;2022-12-29T07:14:49;10.10;99.90
49503;DHT22;35409;48.776;9.204;2022-12-29T07:17:14;10.00;99.90
49503;DHT22;35409;48.776;9.204;2022-12-29T07:19:40;10.10;99.90
49503;DHT22;35409;48.776;9.204;2022-12-29T07:22:06;10.10;99.90
49503;DHT22;35409;48.776;9.204;2022-12-29T07:24:31;10.10;99.90
49503;DHT22;35409;48.776;9.204;2022-12-29T07:26:57;10.00;99.90
49503;DHT22;35409;48.776;9.204;2022-12-29T07:29:22;10.00;99.90
49503;DHT22;35409;48.776;9.204;2022-12-29T07:31:48;10.00;99.90
49503;DHT22;35409;48.776;9.204;2022-12-29T07:34:14;10.10;99.90
49503;DHT22;35409;48.776;9.204;2022-12-29T07:36:39;10.10;99.90
49503;DHT22;35409;48.776;9.204;2022-12-29T07:39:05;10.00;99.90
49503;DHT22;35409;48.776;9.204;2022-12-29T07:41:30;10.00;99.90
49503;DHT22;35409;48.776;9.204;2022-12-29T07:43:56;10.00;99.90
49503;DHT22;35409;48.776;9.204;2022-12-29T07:46:21;10.00;99.90
49503;DHT22;35409;48.776;9.204;2022-12-29T07:48:47;10.00;99.90
49503;DHT22;35409;48.776;9.204;2022-12-29T07:51:13;10.10;99.90
49503;DHT22;35409;48.776;9.204;2022-12-29T07:53:38;10.00;99.90
49503;DHT22;35409;48.776;9.204;2022-12-29T07:56:04;10.10;99.90
49503;DHT22;35409;48.776;9.204;2022-12-29T07:58:30;10.10;99.90
49503;DHT22;35409;48.776;9.204;2022-12-29T08:00:56;10.30;99.90
49503;DHT22;35409;48.776;9.204;2022-12-29T08:03:22;10.30;99.90
49503;DHT22;35409;48.776;9.204;2022-12-29T08:05:49;10.50;99.90
49503;DHT22;35409;48.776;9.204;2022-12-29T08:08:14;10.50;99.90
49503;DHT22;35409;48.776;9.204;2022-12-29T08:10:40;10.60;99.90
49503;DHT22;35409;48.776;9.204;2022-12-29T08:13:05;10.60;99.90
49503;DHT22;35409;48.776;9.204;2022-12-29T08:15:31;10.70;99.90
49503;DHT22;35409;48.776;9.204;2022-12-29T08:17:57;10.80;99.90
49503;DHT22;35409;48.776;9.204;2022-12-29T08:20:22;10.80;99.90
49503;DHT22;35409;48.776;9.204;2022-12-29T08:22:48;10.80;99.90
49503;DHT22;35409;48.776;9.204;2022-12-29T08:25:13;10.90;99.90
49503;DHT22;35409;48.776;9.204;2022-12-29T08:27:39;11.00;99.90
49503;DHT22;35409;48.776;9.204;2022-12-29T08:30:05;11.00;99.90
49503;DHT22;35409;48.776;9.204;2022-12-29T08:32:31;11.00;99.90
49503;DHT22;35409;48.776;9.204;2022-12-29T08:34:57;11.10;99.90
49503;DHT22;35409;48.776;9.204;2022-12-29T08:37:23;11.10;99.90
49503;DHT22;35409;48.776;9.204;2022-12-29T08:39:48;11.10;99.90
49503;DHT22;35409;48.776;9.204;2022-12-29T08:42:14;11.20;99.90
49503;DHT22;35409;48.776;9.204;2022-12-29T08:44:39;11.20;99.90
49503;DHT22;35409;48.776;9.204;2022-12-29T08:47:05;11.20;99.90
49503;DHT22;35409;48.776;9.204;2022-12-29T08:49:31;11.20;99.90
49503;DHT22;35409;48.776;9.204;2022-12-29T08:51:58;11.30;99.90
49503;DHT22;35409;48.776;9.204;2022-12-29T08:54:24;11.30;99.90
49503;DHT22;35409;48.776;9.204;2022-12-29T08:56:50;11.20;99.90
49503;DHT22;35409;48.776;9.204;2022-12-29T08:59:15;11.20;99.90
49503;DHT22;35409;48.776;9.204;2022-12-29T09:01:41;11.10;99.90
49503;DHT22;35409;48.776;9.204;2022-12-29T09:04:07;11.10;99.90
49503;DHT22;35409;48.776;9.204;2022-12-29T09:06:33;11.10;99.90
49503;DHT22;35409;48.776;9.204;2022-12-29T09:08:58;11.20;99.90
49503;DHT22;35409;48.776;9.204;2022-12-29T09:11:25;11.20;99.90
49503;DHT22;35409;48.776;9.204;2022-12-29T09:13:52;11.20;99.90
49503;DHT22;35409;48.776;9.204;2022-12-29T09:16:19;11.30;99.90
49503;DHT22;35409;48.776;9.204;2022-12-29T09:18:45;11.40;99.90
49503;DHT22;35409;48.776;9.204;2022-12-29T09:21:11;11.50;99.90
49503;DHT22;35409;48.776;9.204;2022-12-29T09:23:37;11.60;99.90
49503;DHT22;35409;48.776;9.204;2022-12-29T09:26:03;11.70;99.90
49503;DHT22;35409;48.776;9.204;2022-12-29T09:28:29;11.80;99.90
49503;DHT22;35409;48.776;9.204;2022-12-29T09:30:56;12.00;99.90
49503;DHT22;35409;48.776;9.204;2022-12-29T09:33:22;12.00;99.90
49503;DHT22;35409;48.776;9.204;2022-12-29T09:35:56;12.10;99.90
49503;DHT22;35409;48.776;9.204;2022-12-29T09:38:23;12.30;99.90
49503;DHT22;35409;48.776;9.204;2022-12-29T09:40:52;12.30;99.90
49503;DHT22;35409;48.776;9.204;2022-12-29T09:46:23;12.50;99.90
49503;DHT22;35409;48.776;9.204;2022-12-29T09:51:38;12.70;99.90
49503;DHT22;35409;48.776;9.204;2022-12-29T09:57:09;12.80;99.90
49503;DHT22;35409;48.776;9.204;2022-12-29T09:59:40;12.90;99.90
49503;DHT22;35409;48.776;9.204;2022-12-29T10:02:32;13.10;99.90
49503;DHT22;35409;48.776;9.204;2022-12-29T10:04:59;13.20;99.90
49503;DHT22;35409;48.776;9.204;2022-12-29T10:07:45;13.20;99.90
49503;DHT22;35409;48.776;9.204;2022-12-29T10:10:46;13.20;99.90
49503;DHT22;35409;48.776;9.204;2022-12-29T10:23:51;13.10;99.90
49503;DHT22;35409;48.776;9.204;2022-12-29T10:26:29;13.10;99.90
49503;DHT22;35409;48.776;9.204;2022-12-29T10:29:20;13.10;99.90
49503;DHT22;35409;48.776;9.204;2022-12-29T10:31:55;13.10;99.90
49503;DHT22;35409;48.776;9.204;2022-12-29T10:34:37;13.20;99.90
49503;DHT22;35409;48.776;9.204;2022-12-29T10:37:14;13.10;99.90
49503;DHT22;35409;48.776;9.204;2022-12-29T10:39:49;13.10;99.90
49503;DHT22;35409;48.776;9.204;2022-12-29T10:42:37;13.30;99.90
49503;DHT22;35409;48.776;9.204;2022-12-29T10:47:38;13.40;99.90
49503;DHT22;35409;48.776;9.204;2022-12-29T10:50:11;13.50;99.90
49503;DHT22;35409;48.776;9.204;2022-12-29T10:52:38;13.70;99.90
49503;DHT22;35409;48.776;9.204;2022-12-29T10:55:17;13.90;99.90
49503;DHT22;35409;48.776;9.204;2022-12-29T11:00:13;14.20;99.90
49503;DHT22;35409;48.776;9.204;2022-12-29T11:08:03;14.80;99.90
49503;DHT22;35409;48.776;9.204;2022-12-29T11:10:35;14.80;99.90
49503;DHT22;35409;48.776;9.204;2022-12-29T11:13:48;14.80;99.90
49503;DHT22;35409;48.776;9.204;2022-12-29T11:16:13;14.80;99.90
49503;DHT22;35409;48.776;9.204;2022-12-29T11:18:40;14.60;99.90
49503;DHT22;35409;48.776;9.204;2022-12-29T11:21:32;14.60;99.90
49503;DHT22;35409;48.776;9.204;2022-12-29T11:24:23;14.50;99.90
49503;DHT22;35409;48.776;9.204;2022-12-29T11:26:50;14.40;99.90
49503;DHT22;35409;48.776;9.204;2022-12-29T11:31:55;14.20;99.90
49503;DHT22;35409;48.776;9.204;2022-12-29T11:34:32;14.00;99.90
49503;DHT22;35409;48.776;9.204;2022-12-29T11:37:04;14.00;99.90
49503;DHT22;35409;48.776;9.204;2022-12-29T11:39:42;14.00;99.90
49503;DHT22;35409;48.776;9.204;2022-12-29T11:42:18;14.10;99.90
49503;DHT22;35409;48.776;9.204;2022-12-29T11:44:46;14.10;99.90
49503;DHT22;35409;48.776;9.204;2022-12-29T11:47:27;14.00;99.90
49503;DHT22;35409;48.776;9.204;2022-12-29T11:50:03;13.80;99.90
49503;DHT22;35409;48.776;9.204;2022-12-29T11:52:33;13.60;99.90
49503;DHT22;35409;48.776;9.204;2022-12-29T11:55:03;13.40;99.90
49503;DHT22;35409;48.776;9.204;2022-12-29T11:57:33;13.30;99.90
49503;DHT22;35409;48.776;9.204;2022-12-29T12:00:00;13.20;99.90
49503;DHT22;35409;48.776;9.204;2022-12-29T12:02:36;13.20;99.90
49503;DHT22;35409;48.776;9.204;2022-12-29T12:05:21;13.10;99.90
49503;DHT22;35409;48.776;9.204;2022-12-29T12:08:01;13.00;99.90
49503;DHT22;35409;48.776;9.204;2022-12-29T12:10:34;12.90;99.90
49503;DHT22;35409;48.776;9.204;2022-12-29T12:15:45;12.60;99.90
49503;DHT22;35409;48.776;9.204;2022-12-29T12:18:21;12.50;99.90
49503;DHT22;35409;48.776;9.204;2022-12-29T12:20:54;12.50;99.90
49503;DHT22;35409;48.776;9.204;2022-12-29T12:26:23;12.60;99.90
49503;DHT22;35409;48.776;9.204;2022-12-29T12:28:57;12.70;99.90
49503;DHT22;35409;48.776;9.204;2022-12-29T12:31:47;12.80;99.90
49503;DHT22;35409;48.776;9.204;2022-12-29T12:34:23;12.90;99.90
49503;DHT22;35409;48.776;9.204;2022-12-29T12:40:07;13.10;99.90
49503;DHT22;35409;48.776;9.204;2022-12-29T12:47:52;13.10;99.90
49503;DHT22;35409;48.776;9.204;2022-12-29T12:50:50;12.90;99.90
49503;DHT22;35409;48.776;9.204;2022-12-29T13:04:32;12.70;99.90
49503;DHT22;35409;48.776;9.204;2022-12-29T13:10:17;12.80;99.90
49503;DHT22;35409;48.776;9.204;2022-12-29T13:13:14;12.90;99.90
49503;DHT22;35409;48.776;9.204;2022-12-29T13:16:06;13.00;99.90
49503;DHT22;35409;48.776;9.204;2022-12-29T13:18:48;13.00;99.90
49503;DHT22;35409;48.776;9.204;2022-12-29T13:21:25;13.00;99.90
49503;DHT22;35409;48.776;9.204;2022-12-29T13:24:12;13.10;99.90
49503;DHT22;35409;48.776;9.204;2022-12-29T13:27:01;13.10;99.90
49503;DHT22;35409;48.776;9.204;2022-12-29T13:29:37;13.10;99.90
49503;DHT22;35409;48.776;9.204;2022-12-29T13:35:19;13.00;99.90
49503;DHT22;35409;48.776;9.204;2022-12-29T13:38:13;12.90;99.90
49503;DHT22;35409;48.776;9.204;2022-12-29T13:40:44;12.90;99.90
49503;DHT22;35409;48.776;9.204;2022-12-29T13:43:12;12.80;99.90
49503;DHT22;35409;48.776;9.204;2022-12-29T13:45:39;12.70;99.90
49503;DHT22;35409;48.776;9.204;2022-12-29T13:49:06;12.70;99.90
49503;DHT22;35409;48.776;9.204;2022-12-29T13:51:01;12.70;99.90
49503;DHT22;35409;48.776;9.204;2022-12-29T13:53:40;12.70;99.90
49503;DHT22;35409;48.776;9.204;2022-12-29T13:56:30;12.60;99.90
49503;DHT22;35409;48.776;9.204;2022-12-29T13:58:58;12.70;99.90
49503;DHT22;35409;48.776;9.204;2022-12-29T14:04:15;12.60;99.90
49503;DHT22;35409;48.776;9.204;2022-12-29T14:06:46;12.50;99.90
49503;DHT22;35409;48.776;9.204;2022-12-29T14:09:40;12.50;99.90
49503;DHT22;35409;48.776;9.204;2022-12-29T14:12:39;12.40;99.90
49503;DHT22;35409;48.776;9.204;2022-12-29T14:17:34;12.50;99.90
49503;DHT22;35409;48.776;9.204;2022-12-29T14:20:01;12.50;99.90
49503;DHT22;35409;48.776;9.204;2022-12-29T14:22:28;12.50;99.90
49503;DHT22;35409;48.776;9.204;2022-12-29T14:24:54;12.50;99.90
49503;DHT22;35409;48.776;9.204;2022-12-29T14:29:47;12.40;99.90
49503;DHT22;35409;48.776;9.204;2022-12-29T14:37:36;12.30;99.90
49503;DHT22;35409;48.776;9.204;2022-12-29T14:40:39;12.20;99.90
49503;DHT22;35409;48.776;9.204;2022-12-29T14:43:13;12.20;99.90
49503;DHT22;35409;48.776;9.204;2022-12-29T14:45:40;12.10;99.90
49503;DHT22;35409;48.776;9.204;2022-12-29T14:48:30;12.00;99.90
49503;DHT22;35409;48.776;9.204;2022-12-29T14:50:57;12.00;99.90
49503;DHT22;35409;48.776;9.204;2022-12-29T14:56:09;11.90;99.90
49503;DHT22;35409;48.776;9.204;2022-12-29T15:01:38;11.90;99.90
49503;DHT22;35409;48.776;9.204;2022-12-29T15:04:20;11.90;99.90
49503;DHT22;35409;48.776;9.204;2022-12-29T15:06:46;11.90;99.90
49503;DHT22;35409;48.776;9.204;2022-12-29T15:12:35;11.80;99.90
49503;DHT22;35409;48.776;9.204;2022-12-29T15:17:42;11.60;99.90
49503;DHT22;35409;48.776;9.204;2022-12-29T15:20:21;11.50;99.90
49503;DHT22;35409;48.776;9.204;2022-12-29T15:23:00;11.50;99.90
49503;DHT22;35409;48.776;9.204;2022-12-29T15:25:27;11.40;99.90
49503;DHT22;35409;48.776;9.204;2022-12-29T15:28:04;11.40;99.90
49503;DHT22;35409;48.776;9.204;2022-12-29T15:30:31;11.40;99.90
49503;DHT22;35409;48.776;9.204;2022-12-29T15:32:57;11.40;99.90
49503;DHT22;35409;48.776;9.204;2022-12-29T15:35:30;11.40;99.90
49503;DHT22;35409;48.776;9.204;2022-12-29T15:37:56;11.40;99.90
49503;DHT22;35409;48.776;9.204;2022-12-29T15:40:26;11.30;99.90
49503;DHT22;35409;48.776;9.204;2022-12-29T15:45:46;11.20;99.90
49503;DHT22;35409;48.776;9.204;2022-12-29T15:48:22;11.20;99.90
49503;DHT22;35409;48.776;9.204;2022-12-29T15:50:49;11.30;99.90
49503;DHT22;35409;48.776;9.204;2022-12-29T15:53:24;11.30;99.90
49503;DHT22;35409;48.776;9.204;2022-12-29T15:55:58;11.30;99.90
49503;DHT22;35409;48.776;9.204;2022-12-29T15:58:28;11.40;99.90
49503;DHT22;35409;48.776;9.204;2022-12-29T16:00:57;11.40;99.90
49503;DHT22;35409;48.776;9.204;2022-12-29T16:03:25;11.40;99.90
49503;DHT22;35409;48.776;9.204;2022-12-29T16:05:54;11.40;99.90
49503;DHT22;35409;48.776;9.204;2022-12-29T16:08:32;11.40;99.90
49503;DHT22;35409;48.776;9.204;2022-12-29T16:11:00;11.10;99.90
49503;DHT22;35409;48.776;9.204;2022-12-29T16:13:33;10.80;99.90
49503;DHT22;35409;48.776;9.204;2022-12-29T16:16:02;10.60;99.90
49503;DHT22;35409;48.776;9.204;2022-12-29T16:18:35;10.30;99.90
49503;DHT22;35409;48.776;9.204;2022-12-29T16:21:03;10.20;99.90
49503;DHT22;35409;48.776;9.204;2022-12-29T16:23:29;10.00;99.90
49503;DHT22;35409;48.776;9.204;2022-12-29T16:25:56;9.80;99.90
49503;DHT22;35409;48.776;9.204;2022-12-29T16:28:39;9.60;99.90
49503;DHT22;35409;48.776;9.204;2022-12-29T16:33:48;9.50;99.90
49503;DHT22;35409;48.776;9.204;2022-12-29T16:36:32;9.40;99.90
49503;DHT22;35409;48.776;9.204;2022-12-29T16:39:59;9.40;99.90
49503;DHT22;35409;48.776;9.204;2022-12-29T16:50:30;9.40;99.90
49503;DHT22;35409;48.776;9.204;2022-12-29T16:52:56;9.40;99.90
49503;DHT22;35409;48.776;9.204;2022-12-29T16:55:23;9.40;99.90
49503;DHT22;35409;48.776;9.204;2022-12-29T16:57:50;9.40;99.90
49503;DHT22;35409;48.776;9.204;2022-12-29T17:00:24;9.30;99.90
49503;DHT22;35409;48.776;9.204;2022-12-29T17:02:51;9.20;99.90
49503;DHT22;35409;48.776;9.204;2022-12-29T17:05:18;9.10;99.90
49503;DHT22;35409;48.776;9.204;2022-12-29T17:07:45;9.00;99.90
49503;DHT22;35409;48.776;9.204;2022-12-29T17:10:11;9.00;99.90
49503;DHT22;35409;48.776;9.204;2022-12-29T17:12:38;8.90;99.90
49503;DHT22;35409;48.776;9.204;2022-12-29T17:15:06;8.90;99.90
49503;DHT22;35409;48.776;9.204;2022-12-29T17:17:39;8.80;99.90
49503;DHT22;35409;48.776;9.204;2022-12-29T17:20:08;8.80;99.90
49503;DHT22;35409;48.776;9.204;2022-12-29T17:22:39;8.70;99.90
49503;DHT22;35409;48.776;9.204;2022-12-29T17:25:04;8.60;99.90
49503;DHT22;35409;48.776;9.204;2022-12-29T17:27:35;8.60;99.90
49503;DHT22;35409;48.776;9.204;2022-12-29T17:30:11;8.50;99.90
49503;DHT22;35409;48.776;9.204;2022-12-29T17:32:37;8.50;99.90
49503;DHT22;35409;48.776;9.204;2022-12-29T17:35:04;8.50;99.90
49503;DHT22;35409;48.776;9.204;2022-12-29T17:37:36;8.40;99.90
49503;DHT22;35409;48.776;9.204;2022-12-29T17:40:03;8.40;99.90
49503;DHT22;35409;48.776;9.204;2022-12-29T17:42:29;8.40;99.90
49503;DHT22;35409;48.776;9.204;2022-12-29T17:44:58;8.40;99.90
49503;DHT22;35409;48.776;9.204;2022-12-29T17:47:23;8.30;99.90
49503;DHT22;35409;48.776;9.204;2022-12-29T17:49:49;8.30;99.90
49503;DHT22;35409;48.776;9.204;2022-12-29T17:52:16;8.30;99.90
49503;DHT22;35409;48.776;9.204;2022-12-29T17:54:51;8.30;99.90
49503;DHT22;35409;48.776;9.204;2022-12-29T17:57:18;8.30;99.90
49503;DHT22;35409;48.776;9.204;2022-12-29T17:59:44;8.20;99.90
49503;DHT22;35409;48.776;9.204;2022-12-29T18:02:29;8.20;99.90
49503;DHT22;35409;48.776;9.204;2022-12-29T18:04:56;8.20;99.90
49503;DHT22;35409;48.776;9.204;2022-12-29T18:07:27;8.20;99.90
49503;DHT22;35409;48.776;9.204;2022-12-29T18:09:53;8.10;99.90